Time;durP1;ratioP1;P1;durP2;ratioP2;P2;SDS_P1;SDS_P2;PMS_P1;PMS_P2;Temp;Humidity;BMP_temperature;BMP_pressure;BME280_temperature;BME280_humidity;BME280_pressure;Samples;Min_cycle;Max_cycle;Signal;HPM_P1;HPM_P2
2021/12/07 00:00:22;;;;;;;5.57;2.80;;;19.80;58.90;;;;;;4478823;31;20152;-73
2021/12/07 00:02:49;;;;;;;4.82;2.97;;;19.80;59.00;;;;;;4480662;31;20140;-73
2021/12/07 00:05:15;;;;;;;6.65;3.00;;;19.80;59.00;;;;;;4480308;31;20131;-74
2021/12/07 00:07:43;;;;;;;5.60;3.13;;;19.70;59.00;;;;;;4480637;31;20137;-74
2021/12/07 00:10:11;;;;;;;4.85;2.85;;;19.70;59.00;;;;;;4480907;31;20140;-73
2021/12/07 00:12:39;;;;;;;6.95;2.92;;;19.70;59.10;;;;;;4479709;31;20125;-73
2021/12/07 00:15:08;;;;;;;4.72;2.75;;;19.70;59.10;;;;;;4482029;31;20152;-73
2021/12/07 00:17:34;;;;;;;4.82;3.10;;;19.70;59.10;;;;;;4478564;31;20133;-74
2021/12/07 00:20:06;;;;;;;3.72;2.60;;;19.70;59.10;;;;;;4482532;31;20145;-73
2021/12/07 00:22:31;;;;;;;3.95;2.55;;;19.60;59.10;;;;;;4476935;31;20633;-74
2021/12/07 00:24:57;;;;;;;5.07;2.42;;;19.60;59.10;;;;;;4482293;31;20128;-73
2021/12/07 00:27:23;;;;;;;6.10;2.83;;;19.60;59.10;;;;;;4478510;31;20703;-73
2021/12/07 00:29:49;;;;;;;6.05;2.63;;;19.60;59.10;;;;;;4479570;31;20670;-73
2021/12/07 00:32:27;;;;;;;4.22;2.72;;;19.60;59.10;;;;;;4479526;31;20065;-73
2021/12/07 00:37:30;;;;;;;5.13;2.40;;;19.60;59.20;;;;;;4480338;31;20132;-73
2021/12/07 00:39:56;;;;;;;4.75;2.50;;;19.60;59.20;;;;;;4477837;31;20585;-73
2021/12/07 00:42:23;;;;;;;5.82;2.65;;;19.50;59.20;;;;;;4479799;31;20753;-73
2021/12/07 00:44:49;;;;;;;3.65;2.40;;;19.50;59.20;;;;;;4481463;31;20129;-73
2021/12/07 00:47:15;;;;;;;5.53;3.03;;;19.50;59.20;;;;;;4478271;31;20144;-73
2021/12/07 00:49:42;;;;;;;4.25;2.60;;;19.50;59.30;;;;;;4482012;31;20162;-74
2021/12/07 00:52:09;;;;;;;3.78;2.67;;;19.50;59.20;;;;;;4477719;31;20145;-73
2021/12/07 00:54:35;;;;;;;4.10;2.53;;;19.50;59.30;;;;;;4479963;31;20135;-74
2021/12/07 00:57:03;;;;;;;3.00;2.17;;;19.40;59.30;;;;;;4477647;31;20187;-73
2021/12/07 00:59:30;;;;;;;3.70;2.40;;;19.40;59.30;;;;;;4479554;31;20275;-73
2021/12/07 01:01:57;;;;;;;4.22;2.60;;;19.40;59.40;;;;;;4478807;31;20137;-73
2021/12/07 01:04:24;;;;;;;3.38;2.25;;;19.40;59.40;;;;;;4478330;31;20133;-73
2021/12/07 01:26:08;;;;;;;3.50;2.60;;;19.30;59.50;;;;;;4478729;32;20125;-74
2021/12/07 01:28:39;;;;;;;3.38;2.20;;;19.30;59.50;;;;;;4480814;32;20480;-73
2021/12/07 02:00:00;;;;;;;2.10;1.85;;;19.10;59.60;;;;;;4479285;32;20129;-73
2021/12/07 02:02:28;;;;;;;2.22;1.85;;;19.10;59.60;;;;;;4480258;32;20121;-73
2021/12/07 02:04:55;;;;;;;2.80;1.98;;;19.10;59.60;;;;;;4477533;32;20164;-74
2021/12/07 02:07:23;;;;;;;2.70;1.90;;;19.10;59.60;;;;;;4480333;32;20140;-73
2021/12/07 02:09:55;;;;;;;4.05;2.22;;;19.00;59.60;;;;;;4478386;32;20143;-73
2021/12/07 02:12:21;;;;;;;2.40;1.90;;;19.00;59.60;;;;;;4480004;32;20143;-73
2021/12/07 02:14:47;;;;;;;5.18;1.90;;;19.00;59.70;;;;;;4479611;32;20117;-74
2021/12/07 02:17:17;;;;;;;2.70;1.98;;;19.00;59.60;;;;;;4477731;32;20139;-73
2021/12/07 02:19:43;;;;;;;3.40;2.13;;;19.00;59.60;;;;;;4480178;32;20263;-73
2021/12/07 02:22:11;;;;;;;3.65;1.83;;;19.00;60.60;;;;;;4492734;31;20121;-73
2021/12/07 02:24:37;;;;;;;2.88;1.98;;;19.00;59.70;;;;;;4482077;32;20121;-74
2021/12/07 02:27:03;;;;;;;2.67;1.80;;;19.00;59.70;;;;;;4481090;32;20137;-73
2021/12/07 02:29:29;;;;;;;2.20;1.83;;;19.00;59.70;;;;;;4482770;32;20271;-73
2021/12/07 02:31:58;;;;;;;2.28;1.70;;;19.00;59.70;;;;;;4482220;32;20131;-73
2021/12/07 02:34:25;;;;;;;2.50;1.80;;;19.00;59.80;;;;;;4493420;31;20186;-74
2021/12/07 02:36:53;;;;;;;3.13;1.75;;;18.90;59.70;;;;;;4482754;32;20144;-73
2021/12/07 02:39:32;;;;;;;2.75;1.98;;;18.90;59.80;;;;;;4492464;31;20197;-73
2021/12/07 02:42:00;;;;;;;3.85;1.88;;;18.90;59.70;;;;;;4483160;32;20689;-73
2021/12/07 02:44:25;;;;;;;2.08;1.60;;;18.90;59.80;;;;;;4481219;32;20146;-73
2021/12/07 02:46:51;;;;;;;2.45;1.80;;;18.90;59.80;;;;;;4482308;32;20133;-73
2021/12/07 02:49:19;;;;;;;1.70;1.60;;;18.90;59.80;;;;;;4482079;32;20121;-73
2021/12/07 02:51:45;;;;;;;2.70;1.50;;;18.90;59.90;;;;;;4480901;32;20140;-73
2021/12/07 02:54:11;;;;;;;2.00;1.80;;;18.90;59.90;;;;;;4482729;31;20117;-73
2021/12/07 02:56:37;;;;;;;2.10;1.67;;;18.90;59.90;;;;;;4479386;32;20136;-73
2021/12/07 02:59:04;;;;;;;2.25;1.55;;;18.80;59.80;;;;;;4482846;32;20121;-73
2021/12/07 03:01:35;;;;;;;1.48;1.20;;;18.80;59.80;;;;;;4480766;32;20195;-73
2021/12/07 03:04:09;;;;;;;1.73;1.60;;;18.80;59.90;;;;;;4481990;32;20626;-73
2021/12/07 03:26:11;;;;;;;2.33;1.52;;;18.70;59.90;;;;;;4480502;32;20456;-73
2021/12/07 03:28:44;;;;;;;2.63;1.42;;;18.70;59.90;;;;;;4481939;32;20139;-73
2021/12/07 03:31:11;;;;;;;2.20;1.40;;;18.70;59.90;;;;;;4480316;32;20137;-73
2021/12/07 03:33:38;;;;;;;1.67;1.50;;;18.70;59.90;;;;;;4481097;32;20652;-73
2021/12/07 03:36:06;;;;;;;2.28;1.48;;;18.70;59.90;;;;;;4481222;32;20185;-73
2021/12/07 03:38:32;;;;;;;1.73;1.48;;;18.70;59.90;;;;;;4480652;32;20206;-73
2021/12/07 03:40:58;;;;;;;1.85;1.20;;;18.60;59.90;;;;;;4481941;32;20382;-73
2021/12/07 03:43:24;;;;;;;2.28;1.70;;;18.60;59.90;;;;;;4479888;32;20554;-73
2021/12/07 03:45:50;;;;;;;2.83;1.52;;;18.60;60.00;;;;;;4481044;32;20254;-73
2021/12/07 03:48:17;;;;;;;2.20;1.40;;;18.60;60.00;;;;;;4479568;32;20183;-73
2021/12/07 03:50:43;;;;;;;1.60;1.10;;;18.60;60.00;;;;;;4481898;32;20148;-73
2021/12/07 03:53:10;;;;;;;1.52;1.27;;;18.60;60.00;;;;;;4480532;32;20141;-73
2021/12/07 03:55:37;;;;;;;1.77;1.30;;;18.60;59.90;;;;;;4480685;31;20175;-73
2021/12/07 03:58:03;;;;;;;1.88;1.25;;;18.60;60.00;;;;;;4480563;32;20127;-73
2021/12/07 04:00:30;;;;;;;1.80;1.33;;;18.60;60.00;;;;;;4479511;32;20133;-73
2021/12/07 04:02:58;;;;;;;2.35;1.42;;;18.50;59.90;;;;;;4480704;32;20184;-73
2021/12/07 04:05:26;;;;;;;2.88;1.40;;;18.50;60.00;;;;;;4479352;32;20259;-73
2021/12/07 04:07:52;;;;;;;1.40;1.30;;;18.50;60.00;;;;;;4481493;32;20125;-73
2021/12/07 04:10:20;;;;;;;1.70;1.20;;;18.50;60.00;;;;;;4480430;32;20265;-73
2021/12/07 04:12:46;;;;;;;1.13;1.02;;;18.50;60.10;;;;;;4479437;32;20175;-73
2021/12/07 04:15:15;;;;;;;1.63;1.23;;;18.50;60.00;;;;;;4481490;32;20125;-73
2021/12/07 04:17:42;;;;;;;1.73;1.10;;;18.50;60.10;;;;;;4479140;32;20766;-73
2021/12/07 04:20:10;;;;;;;1.90;1.30;;;18.50;60.00;;;;;;4480353;32;20159;-73
2021/12/07 04:22:36;;;;;;;1.15;1.00;;;18.50;60.10;;;;;;4479015;32;20251;-73
2021/12/07 04:25:05;;;;;;;1.77;1.20;;;18.50;60.10;;;;;;4481206;32;20196;-73
2021/12/07 04:27:37;;;;;;;1.42;1.30;;;18.50;60.10;;;;;;4478904;32;20163;-73
2021/12/07 04:30:06;;;;;;;1.90;1.13;;;18.50;60.10;;;;;;4479755;32;20230;-73
2021/12/07 04:32:31;;;;;;;1.45;1.00;;;18.40;60.00;;;;;;4480954;31;20125;-73
2021/12/07 04:34:57;;;;;;;1.40;1.23;;;18.40;60.00;;;;;;4479067;32;20109;-73
2021/12/07 04:37:23;;;;;;;1.80;1.17;;;18.40;60.00;;;;;;4481267;32;20612;-73
2021/12/07 04:39:49;;;;;;;1.52;0.90;;;18.40;60.00;;;;;;4479260;32;20143;-73
2021/12/07 04:42:15;;;;;;;1.95;1.10;;;18.40;60.10;;;;;;4480973;32;20133;-73
2021/12/07 04:44:50;;;;;;;1.95;1.40;;;18.40;60.10;;;;;;4480019;32;20128;-73
2021/12/07 04:47:28;;;;;;;1.40;1.20;;;18.40;60.10;;;;;;4479686;32;20121;-73
2021/12/07 04:58:07;;;;;;;1.30;1.15;;;18.30;60.10;;;;;;4480792;31;20124;-73
2021/12/07 05:00:33;;;;;;;1.10;1.00;;;18.30;60.10;;;;;;4477599;31;20137;-73
2021/12/07 05:03:04;;;;;;;0.90;0.73;;;18.30;60.10;;;;;;4479879;31;20132;-73
2021/12/07 05:05:34;;;;;;;1.55;1.00;;;18.30;60.10;;;;;;4477691;31;20694;-73
2021/12/07 05:08:04;;;;;;;1.38;1.10;;;18.30;61.00;;;;;;4479544;31;20214;-73
2021/12/07 05:10:48;;;;;;;1.00;0.80;;;18.30;60.20;;;;;;4478981;31;20210;-73
2021/12/07 05:39:48;;;;;;;1.95;1.10;;;18.20;60.20;;;;;;4477371;32;20318;-73
2021/12/07 05:42:14;;;;;;;1.27;0.98;;;18.20;60.20;;;;;;4480394;32;20195;-73
2021/12/07 05:44:40;;;;;;;1.77;0.93;;;18.10;60.20;;;;;;4478558;32;20564;-73
2021/12/07 05:47:07;;;;;;;1.23;0.90;;;18.20;61.10;;;;;;4478212;32;20586;-73
2021/12/07 05:49:34;;;;;;;1.20;1.02;;;18.10;60.20;;;;;;4479029;32;20121;-73
2021/12/07 05:52:01;;;;;;;1.30;0.85;;;18.10;60.20;;;;;;4479573;32;20267;-73
2021/12/07 05:54:27;;;;;;;0.85;0.60;;;18.10;60.30;;;;;;4477191;32;20194;-73
2021/12/07 05:56:53;;;;;;;1.08;0.85;;;18.10;60.30;;;;;;4479528;31;20141;-73
2021/12/07 05:59:19;;;;;;;0.82;0.73;;;18.10;60.30;;;;;;4482417;31;20271;-73
2021/12/07 06:01:45;;;;;;;0.90;0.70;;;18.10;60.40;;;;;;4483183;31;20159;-73
2021/12/07 06:04:12;;;;;;;0.80;0.80;;;18.10;60.40;;;;;;4481356;31;20649;-73
2021/12/07 06:06:39;;;;;;;0.70;0.70;;;18.10;60.40;;;;;;4484114;31;20186;-73
2021/12/07 06:09:04;;;;;;;0.60;0.60;;;18.10;60.40;;;;;;4480346;31;20152;-73
2021/12/07 06:11:30;;;;;;;0.82;0.70;;;18.00;60.40;;;;;;4482827;31;20161;-73
2021/12/07 06:13:56;;;;;;;0.90;0.75;;;18.00;60.40;;;;;;4488736;31;20255;-73
2021/12/07 06:16:24;;;;;;;0.80;0.80;;;18.00;60.50;;;;;;4498330;31;20147;-73
2021/12/07 06:18:50;;;;;;;1.35;0.70;;;18.00;60.50;;;;;;4495461;31;20175;-69
2021/12/07 06:21:16;;;;;;;1.23;0.80;;;18.00;60.50;;;;;;4495836;31;20146;-69
2021/12/07 06:23:42;;;;;;;1.38;1.00;;;18.00;60.50;;;;;;4496874;31;20259;-69
2021/12/07 06:26:08;;;;;;;2.33;1.23;;;18.00;60.20;;;;;;4496979;31;20641;-72
2021/12/07 06:28:35;;;;;;;0.98;0.80;;;18.00;59.40;;;;;;4498791;31;20144;-72
2021/12/07 06:31:01;;;;;;;2.28;1.08;;;18.00;59.00;;;;;;4496617;31;20143;-69
2021/12/07 06:33:28;;;;;;;2.95;1.02;;;17.90;59.10;;;;;;4498863;31;20145;-69
2021/12/07 06:35:58;;;;;;;1.88;0.90;;;17.90;59.30;;;;;;4497376;31;20468;-69
2021/12/07 06:38:25;;;;;;;1.67;0.82;;;17.90;59.30;;;;;;4498019;31;20600;-71
2021/12/07 06:40:51;;;;;;;3.15;1.02;;;17.90;59.40;;;;;;4498289;31;20274;-70
2021/12/07 06:43:17;;;;;;;1.60;0.88;;;17.90;59.30;;;;;;4508693;31;20140;-70
2021/12/07 06:45:43;;;;;;;2.00;0.80;;;18.00;59.50;;;;;;4497947;31;20678;-71
2021/12/07 06:48:09;;;;;;;2.97;0.85;;;17.90;59.50;;;;;;4508300;31;20497;-71
2021/12/07 06:50:36;;;;;;;2.63;0.88;;;17.90;59.50;;;;;;4498393;31;20136;-70
2021/12/07 06:53:03;;;;;;;2.67;1.23;;;17.90;59.50;;;;;;4496249;31;20194;-72
2021/12/07 06:55:29;;;;;;;1.55;0.93;;;18.00;59.80;;;;;;4497486;31;20144;-69
2021/12/07 06:57:55;;;;;;;3.72;1.00;;;18.00;59.80;;;;;;4489453;31;20161;-69
2021/12/07 07:00:21;;;;;;;5.70;1.10;;;18.10;59.90;;;;;;4479635;32;20506;-70
2021/12/07 07:02:47;;;;;;;3.35;1.10;;;18.10;60.00;;;;;;4481378;32;20191;-70
2021/12/07 07:05:14;;;;;;;4.90;1.20;;;18.10;60.00;;;;;;4480194;32;20251;-69
2021/12/07 07:07:42;;;;;;;3.53;1.20;;;18.20;60.10;;;;;;4482197;32;20260;-69
2021/12/07 07:10:11;;;;;;;2.72;0.90;;;18.30;60.10;;;;;;4480892;32;20144;-68
2021/12/07 07:12:37;;;;;;;5.82;1.15;;;18.30;60.00;;;;;;4493676;31;20176;-71
2021/12/07 07:15:05;;;;;;;1.92;0.80;;;18.40;60.20;;;;;;4482283;32;20140;-70
2021/12/07 07:17:31;;;;;;;1.65;0.85;;;18.50;60.70;;;;;;4479508;32;20129;-71
2021/12/07 07:19:56;;;;;;;3.20;0.90;;;18.50;59.80;;;;;;4481130;32;20116;-67
2021/12/07 07:22:22;;;;;;;4.00;0.70;;;18.60;59.80;;;;;;4491947;31;20125;-65
2021/12/07 07:24:49;;;;;;;9.40;1.20;;;18.80;59.40;;;;;;4482183;32;20696;-71
2021/12/07 07:27:14;;;;;;;8.13;1.05;;;19.00;58.70;;;;;;4492605;31;20214;-70
2021/12/07 07:29:41;;;;;;;6.70;0.80;;;19.20;58.10;;;;;;4479888;32;20218;-73
2021/12/07 07:32:07;;;;;;;7.70;1.08;;;19.40;57.70;;;;;;4480904;32;20093;-70
2021/12/07 07:34:33;;;;;;;6.75;0.77;;;19.50;57.00;;;;;;4480083;32;20125;-71
2021/12/07 07:36:59;;;;;;;1.10;0.70;;;19.70;56.70;;;;;;4481864;32;20137;-75
2021/12/07 07:39:25;;;;;;;4.25;0.80;;;19.80;56.30;;;;;;4479437;32;20117;-75
2021/12/07 07:41:51;;;;;;;2.95;1.02;;;20.00;56.10;;;;;;4481730;32;20202;-75
2021/12/07 07:44:37;;;;;;;3.47;1.00;;;20.20;55.80;;;;;;4480214;32;20214;-69
2021/12/07 07:47:04;;;;;;;2.20;0.63;;;20.30;55.40;;;;;;4480299;32;20147;-72
2021/12/07 07:49:29;;;;;;;4.25;0.60;;;20.50;55.20;;;;;;4485811;31;20136;-72
2021/12/07 07:51:55;;;;;;;4.90;0.88;;;20.60;54.80;;;;;;4491626;31;20131;-68
2021/12/07 07:54:21;;;;;;;3.53;0.80;;;20.80;54.60;;;;;;4482050;32;20547;-75
2021/12/07 07:56:47;;;;;;;7.13;0.70;;;20.90;54.30;;;;;;4479477;31;20133;-78
2021/12/07 07:59:13;;;;;;;3.90;1.05;;;21.00;54.20;;;;;;4480575;32;20191;-80
2021/12/07 08:01:40;;;;;;;3.45;0.60;;;21.00;55.00;;;;;;4466350;31;20140;-76
2021/12/07 08:04:06;;;;;;;3.72;0.90;;;21.00;54.20;;;;;;4477327;31;25262;-79
2021/12/07 08:06:33;;;;;;;3.15;0.70;;;20.90;54.30;;;;;;4482701;31;20609;-76
2021/12/07 08:08:59;;;;;;;2.90;0.80;;;20.90;54.70;;;;;;4478768;31;20140;-74
2021/12/07 08:11:25;;;;;;;3.20;0.90;;;20.80;55.10;;;;;;4481292;31;20234;-72
2021/12/07 08:13:51;;;;;;;4.88;0.90;;;20.80;55.50;;;;;;4477454;31;20117;-71
2021/12/07 08:16:17;;;;;;;1.95;0.80;;;20.70;55.70;;;;;;4479815;32;20132;-70
2021/12/07 08:18:47;;;;;;;3.70;0.63;;;20.60;56.00;;;;;;4478665;31;20117;-71
2021/12/07 08:21:15;;;;;;;6.70;1.00;;;20.50;57.20;;;;;;4480303;31;20140;-68
2021/12/07 08:23:41;;;;;;;10.18;1.15;;;20.40;56.20;;;;;;4481238;31;20518;-71
2021/12/07 08:26:09;;;;;;;4.60;1.10;;;20.30;55.90;;;;;;4479327;31;20184;-72
2021/12/07 08:28:35;;;;;;;7.70;1.02;;;20.30;55.40;;;;;;4480144;32;20133;-72
2021/12/07 08:31:03;;;;;;;2.67;1.10;;;20.20;55.00;;;;;;4479008;31;20132;-72
2021/12/07 08:33:30;;;;;;;5.50;1.40;;;20.10;54.50;;;;;;4493316;31;20141;-73
2021/12/07 08:35:55;;;;;;;8.27;1.20;;;20.00;54.10;;;;;;4479577;32;20337;-67
2021/12/07 08:38:22;;;;;;;4.82;1.23;;;20.00;53.90;;;;;;4480151;32;20576;-69
2021/12/07 08:40:53;;;;;;;5.45;1.10;;;20.00;53.30;;;;;;4481121;31;20642;-70
2021/12/07 08:43:27;;;;;;;4.45;1.05;;;20.00;53.40;;;;;;4479331;31;20144;-74
2021/12/07 08:45:55;;;;;;;4.88;1.30;;;20.10;53.20;;;;;;4481098;31;20129;-73
2021/12/07 08:48:21;;;;;;;8.73;1.50;;;20.20;52.90;;;;;;4479081;32;20153;-72
2021/12/07 08:50:47;;;;;;;9.88;1.80;;;20.20;52.70;;;;;;4484886;31;20136;-72
2021/12/07 08:53:16;;;;;;;9.52;1.40;;;20.20;52.20;;;;;;4495818;31;20133;-73
2021/12/07 09:01:18;;;;;;;3.63;1.20;;;20.20;52.40;;;;;;4494598;31;20121;-73
2021/12/07 09:03:45;;;;;;;2.88;0.90;;;20.20;52.60;;;;;;4495092;31;20132;-73
2021/12/07 09:06:11;;;;;;;4.75;1.08;;;20.10;52.70;;;;;;4496094;31;20093;-73
2021/12/07 09:08:39;;;;;;;4.75;1.10;;;20.10;52.80;;;;;;4506991;31;20136;-69
2021/12/07 09:11:09;;;;;;;2.83;0.80;;;20.10;52.90;;;;;;4496431;31;20135;-70
2021/12/07 09:13:40;;;;;;;5.20;0.93;;;20.10;53.10;;;;;;4492974;31;20202;-77
2021/12/07 09:16:08;;;;;;;4.13;1.00;;;20.10;53.20;;;;;;4480313;31;20137;-72
2021/12/07 09:18:34;;;;;;;4.40;1.05;;;20.10;53.40;;;;;;4479570;32;20133;-74
2021/12/07 09:21:02;;;;;;;3.90;1.10;;;20.10;53.40;;;;;;4479765;32;20180;-76
2021/12/07 09:23:28;;;;;;;6.38;1.10;;;20.10;53.60;;;;;;4480296;32;20220;-74
2021/12/07 09:25:54;;;;;;;4.85;0.90;;;20.10;53.70;;;;;;4478947;32;20129;-74
2021/12/07 09:28:20;;;;;;;4.88;0.98;;;20.10;54.70;;;;;;4480404;32;20125;-70
2021/12/07 09:30:51;;;;;;;4.88;0.85;;;20.10;53.80;;;;;;4479729;32;20203;-71
2021/12/07 09:33:19;;;;;;;3.15;0.80;;;20.10;53.90;;;;;;4469133;32;20152;-72
2021/12/07 09:35:45;;;;;;;4.10;0.90;;;20.10;54.00;;;;;;4481090;32;20238;-73
2021/12/07 09:38:11;;;;;;;5.30;0.88;;;20.10;55.00;;;;;;4482783;32;20129;-71
2021/12/07 09:40:38;;;;;;;2.90;0.90;;;20.10;54.00;;;;;;4483545;32;20077;-72
2021/12/07 09:43:04;;;;;;;3.00;0.95;;;20.10;54.20;;;;;;4481796;32;20185;-71
2021/12/07 09:45:31;;;;;;;3.33;0.60;;;20.10;54.30;;;;;;4476809;31;20121;-71
2021/12/07 09:48:03;;;;;;;4.65;0.68;;;20.10;54.30;;;;;;4485402;31;20194;-70
2021/12/07 09:50:30;;;;;;;2.78;0.93;;;20.10;54.40;;;;;;4483680;31;20156;-71
2021/12/07 09:52:56;;;;;;;3.60;0.90;;;20.10;54.40;;;;;;4496581;31;20132;-71
2021/12/07 09:55:23;;;;;;;4.88;0.77;;;20.10;54.40;;;;;;4497693;31;20140;-71
2021/12/07 09:57:49;;;;;;;3.22;0.90;;;20.10;54.50;;;;;;4498625;31;20214;-71
2021/12/07 10:00:18;;;;;;;3.08;0.73;;;20.10;54.60;;;;;;4508754;31;20133;-72
2021/12/07 10:02:45;;;;;;;2.42;0.80;;;20.10;54.60;;;;;;4498809;31;20144;-72
2021/12/07 10:05:12;;;;;;;3.42;0.80;;;20.10;54.70;;;;;;4495659;31;20458;-73
2021/12/07 10:07:38;;;;;;;4.70;1.05;;;20.10;54.80;;;;;;4498979;31;20129;-78
2021/12/07 10:10:16;;;;;;;8.98;1.00;;;20.10;54.90;;;;;;4497217;31;20139;-72
2021/12/07 10:12:42;;;;;;;8.00;0.90;;;20.00;54.90;;;;;;4497932;31;20117;-73
2021/12/07 10:15:09;;;;;;;5.55;0.82;;;20.00;55.10;;;;;;4497568;31;20124;-69
2021/12/07 10:17:39;;;;;;;5.88;0.98;;;20.00;55.10;;;;;;4496432;31;20210;-69
2021/12/07 10:20:38;;;;;;;6.63;1.20;;;20.10;55.10;;;;;;4487251;31;20193;-72
2021/12/07 10:23:13;;;;;;;4.72;1.00;;;20.10;55.10;;;;;;4481634;31;20121;-66
2021/12/07 10:25:40;;;;;;;9.32;1.00;;;20.00;55.10;;;;;;4491025;31;20607;-72
2021/12/07 10:28:44;;;;;;;6.07;0.73;;;20.00;55.30;;;;;;4482535;32;20140;-67
2021/12/07 10:31:09;;;;;;;9.15;1.00;;;20.00;55.50;;;;;;4481127;32;20424;-70
2021/12/07 10:33:45;;;;;;;3.67;1.00;;;20.00;55.60;;;;;;4481573;32;20606;-71
2021/12/07 10:36:22;;;;;;;4.82;0.98;;;20.00;55.60;;;;;;4482213;32;20148;-71
2021/12/07 10:38:56;;;;;;;2.55;0.73;;;20.10;55.70;;;;;;4481390;32;20140;-76
2021/12/07 10:41:24;;;;;;;3.38;0.82;;;20.10;55.70;;;;;;4482294;32;20125;-74
2021/12/07 10:44:18;;;;;;;5.70;0.98;;;20.10;55.70;;;;;;4486670;31;20140;-72
2021/12/07 10:47:03;;;;;;;3.90;0.70;;;20.10;55.70;;;;;;4509316;31;20141;-75
2021/12/07 10:49:37;;;;;;;5.00;0.88;;;20.10;55.60;;;;;;4489875;31;20136;-74
2021/12/07 10:52:07;;;;;;;3.78;0.80;;;20.10;55.60;;;;;;4485002;31;20147;-74
2021/12/07 10:54:37;;;;;;;4.53;0.73;;;20.20;56.60;;;;;;4484626;31;20778;-72
2021/12/07 10:57:05;;;;;;;4.90;0.80;;;20.20;55.70;;;;;;4480630;31;20140;-74
2021/12/07 10:59:33;;;;;;;7.57;0.80;;;20.20;55.70;;;;;;4498947;31;20826;-73
2021/12/07 11:02:09;;;;;;;5.70;0.80;;;20.20;55.80;;;;;;4481767;31;20297;-74
2021/12/07 11:04:35;;;;;;;3.75;0.85;;;20.20;55.80;;;;;;4479034;32;20560;-73
2021/12/07 11:07:11;;;;;;;4.20;1.10;;;20.20;55.70;;;;;;4482067;31;20558;-72
2021/12/07 11:09:58;;;;;;;4.88;1.27;;;20.20;55.70;;;;;;4478946;31;20203;-73
2021/12/07 11:12:28;;;;;;;4.57;0.73;;;20.20;55.70;;;;;;4481008;31;20199;-75
2021/12/07 11:14:59;;;;;;;4.15;0.82;;;20.20;55.70;;;;;;4481581;31;20250;-73
2021/12/07 11:17:34;;;;;;;2.72;0.88;;;20.20;55.80;;;;;;4478538;31;20186;-72
2021/12/07 11:20:02;;;;;;;3.03;0.75;;;20.20;55.80;;;;;;4487749;31;20175;-72
2021/12/07 11:22:32;;;;;;;2.00;0.65;;;20.20;55.80;;;;;;4493487;31;20140;-72
2021/12/07 11:25:01;;;;;;;4.13;0.85;;;20.20;55.80;;;;;;4496434;31;20144;-72
2021/12/07 11:30:20;;;;;;;4.80;0.90;;;20.20;55.90;;;;;;4492986;31;20109;-73
2021/12/07 11:32:54;;;;;;;4.28;0.95;;;20.20;55.80;;;;;;4481787;31;20145;-73
2021/12/07 11:35:35;;;;;;;4.72;0.90;;;20.30;55.70;;;;;;4479659;31;20140;-72
2021/12/07 11:38:05;;;;;;;4.88;0.68;;;20.40;55.60;;;;;;4481219;31;20133;-74
2021/12/07 11:40:36;;;;;;;4.53;0.70;;;20.50;55.40;;;;;;4496143;31;20080;-71
2021/12/07 11:43:14;;;;;;;2.83;0.75;;;20.60;55.30;;;;;;4495320;31;20124;-71
2021/12/07 11:45:42;;;;;;;7.47;0.60;;;20.70;55.10;;;;;;4497417;31;20190;-74
2021/12/07 11:48:09;;;;;;;6.13;0.90;;;20.80;54.80;;;;;;4495798;31;20186;-72
2021/12/07 11:50:49;;;;;;;1.77;0.50;;;20.80;54.50;;;;;;4497147;31;20136;-73
2021/12/07 11:53:22;;;;;;;4.78;1.08;;;20.90;54.30;;;;;;4508674;31;20186;-74
2021/12/07 11:55:50;;;;;;;3.78;1.10;;;21.00;54.10;;;;;;4494088;31;20149;-75
2021/12/07 11:58:17;;;;;;;3.58;1.20;;;21.10;53.90;;;;;;4495137;31;20164;-77
2021/12/07 12:00:48;;;;;;;8.88;1.05;;;21.20;53.80;;;;;;4490064;31;20489;-77
2021/12/07 12:03:17;;;;;;;3.80;0.93;;;21.20;53.70;;;;;;4496440;31;20144;-78
2021/12/07 12:05:46;;;;;;;6.60;0.93;;;21.30;53.60;;;;;;4494928;31;20191;-72
2021/12/07 12:08:14;;;;;;;3.35;0.80;;;21.30;53.50;;;;;;4495339;31;20132;-73
2021/12/07 12:11:00;;;;;;;3.92;0.80;;;21.40;53.50;;;;;;4483657;31;20286;-73
2021/12/07 12:13:50;;;;;;;3.15;0.70;;;21.40;53.50;;;;;;4488787;31;20152;-71
2021/12/07 12:16:42;;;;;;;3.55;0.70;;;21.40;53.40;;;;;;4495870;31;20143;-72
2021/12/07 12:19:17;;;;;;;7.10;0.90;;;21.40;53.20;;;;;;4485588;31;20085;-74
2021/12/07 12:21:54;;;;;;;3.13;0.90;;;21.40;53.20;;;;;;4478165;31;20153;-73
2021/12/07 12:24:49;;;;;;;3.38;0.70;;;21.40;53.20;;;;;;4485423;31;20140;-72
2021/12/07 12:27:18;;;;;;;2.85;0.80;;;21.50;53.30;;;;;;4478040;31;20266;-74
2021/12/07 12:29:48;;;;;;;2.33;0.82;;;21.50;53.20;;;;;;4478711;31;20132;-76
2021/12/07 12:32:14;;;;;;;3.22;0.70;;;21.50;53.20;;;;;;4479114;31;20129;-73
2021/12/07 12:34:49;;;;;;;3.25;0.70;;;21.50;53.20;;;;;;4478070;31;20678;-76
2021/12/07 12:37:17;;;;;;;3.30;0.60;;;21.50;53.10;;;;;;4494757;31;20186;-74
2021/12/07 12:39:58;;;;;;;2.17;0.70;;;21.50;53.10;;;;;;4493900;31;20155;-74
2021/12/07 12:42:30;;;;;;;3.65;0.50;;;21.50;53.10;;;;;;4494681;31;20131;-71
2021/12/07 12:45:00;;;;;;;6.28;0.82;;;21.50;53.10;;;;;;4495685;31;20112;-72
2021/12/07 12:47:28;;;;;;;1.33;0.50;;;21.50;53.00;;;;;;4492541;31;20255;-72
2021/12/07 12:49:54;;;;;;;3.75;0.82;;;21.60;53.10;;;;;;4496017;31;20249;-72
2021/12/07 12:52:49;;;;;;;3.97;0.73;;;21.60;53.10;;;;;;4493115;31;20198;-72
2021/12/07 12:55:28;;;;;;;;;;;21.60;53.10;;;;;;4494993;31;20151;-72
2021/12/07 12:57:54;;;;;;;1.83;0.60;;;21.60;53.10;;;;;;4495826;31;20119;-72
2021/12/07 13:00:22;;;;;;;4.00;0.68;;;21.60;53.00;;;;;;4492675;31;20463;-72
2021/12/07 13:03:07;;;;;;;3.88;0.65;;;21.60;53.00;;;;;;4507600;31;20144;-71
2021/12/07 13:05:35;;;;;;;4.05;0.77;;;21.60;53.00;;;;;;4493621;31;20202;-76
2021/12/07 13:08:16;;;;;;;4.53;0.60;;;21.60;53.00;;;;;;4493351;31;20124;-73
2021/12/07 13:11:30;;;;;;;1.92;0.70;;;21.70;53.20;;;;;;4495180;31;20194;-77
2021/12/07 13:13:56;;;;;;;3.50;0.75;;;21.70;53.20;;;;;;4460366;32;20152;-72
2021/12/07 13:16:21;;;;;;;4.40;0.80;;;21.70;53.20;;;;;;4487915;31;20129;-74
2021/12/07 13:18:47;;;;;;;1.55;0.73;;;21.70;53.30;;;;;;4494543;31;20140;-75
2021/12/07 13:21:22;;;;;;;4.45;0.77;;;21.70;53.30;;;;;;4492871;31;20243;-72
2021/12/07 13:24:06;;;;;;;5.43;0.80;;;21.70;53.40;;;;;;4495242;31;20186;-77
2021/12/07 13:26:38;;;;;;;4.45;0.70;;;21.70;53.40;;;;;;4493175;32;20165;-81
2021/12/07 13:29:21;;;;;;;1.73;0.50;;;21.70;53.40;;;;;;4495523;32;20275;-74
2021/12/07 13:31:55;;;;;;;2.00;0.60;;;21.70;53.40;;;;;;4485514;32;20128;-73
2021/12/07 13:34:47;;;;;;;;;;;21.70;53.50;;;;;;4480250;32;20521;-73
2021/12/07 13:37:14;;;;;;;1.60;0.80;;;21.70;53.60;;;;;;4491461;32;20036;-71
2021/12/07 13:39:56;;;;;;;6.95;0.63;;;21.70;53.60;;;;;;4493969;32;20125;-72
2021/12/07 13:42:25;;;;;;;1.80;0.63;;;21.70;53.70;;;;;;4466969;32;21491;-73
2021/12/07 13:45:09;;;;;;;5.13;0.80;;;21.70;53.70;;;;;;4484337;32;20152;-73
2021/12/07 13:47:40;;;;;;;2.80;0.70;;;21.60;53.70;;;;;;4491873;32;20129;-74
2021/12/07 13:50:12;;;;;;;4.65;0.82;;;21.60;53.70;;;;;;4479930;32;20210;-73
2021/12/07 13:52:44;;;;;;;2.97;0.60;;;21.60;53.70;;;;;;4477480;32;20140;-74
2021/12/07 13:55:14;;;;;;;3.25;0.80;;;21.60;53.70;;;;;;4480196;32;20117;-73
2021/12/07 13:57:43;;;;;;;1.10;0.47;;;21.60;53.80;;;;;;4493173;32;20410;-71
2021/12/07 14:00:21;;;;;;;6.93;1.08;;;21.60;53.80;;;;;;4490560;32;20191;-72
2021/12/07 14:03:12;;;;;;;4.75;1.20;;;21.60;53.30;;;;;;4494612;32;20136;-72
2021/12/07 14:05:41;;;;;;;2.67;0.80;;;21.60;53.20;;;;;;4477053;32;20123;-75
2021/12/07 14:08:11;;;;;;;3.33;0.80;;;21.60;53.20;;;;;;4478137;32;20574;-75
2021/12/07 14:10:52;;;;;;;4.75;0.88;;;21.60;53.20;;;;;;4493071;32;20140;-74
2021/12/07 14:13:20;;;;;;;3.42;1.15;;;21.60;53.20;;;;;;4491273;32;20202;-75
2021/12/07 14:15:48;;;;;;;2.17;0.80;;;21.60;53.20;;;;;;4479076;31;20133;-74
2021/12/07 14:18:22;;;;;;;3.95;0.60;;;21.60;53.20;;;;;;4494255;31;20136;-74
2021/12/07 14:20:52;;;;;;;2.58;1.02;;;21.60;53.10;;;;;;4481204;31;20214;-74
2021/12/07 14:23:18;;;;;;;2.47;0.90;;;21.60;53.00;;;;;;4496133;31;20092;-75
2021/12/07 14:25:53;;;;;;;2.63;0.85;;;21.60;53.00;;;;;;4481726;31;20109;-74
2021/12/07 14:28:41;;;;;;;4.15;0.82;;;21.60;53.00;;;;;;4490866;31;20203;-75
2021/12/07 14:31:11;;;;;;;2.70;1.00;;;21.60;52.90;;;;;;4480084;31;20233;-76
2021/12/07 14:33:40;;;;;;;3.47;0.75;;;21.60;52.90;;;;;;4482396;31;20125;-75
2021/12/07 14:36:06;;;;;;;2.80;1.02;;;21.70;52.90;;;;;;4493925;31;20139;-75
2021/12/07 14:38:33;;;;;;;2.97;0.68;;;21.70;52.90;;;;;;4485347;31;20187;-74
2021/12/07 14:41:14;;;;;;;6.18;0.57;;;21.70;52.90;;;;;;4491575;31;20331;-74
2021/12/07 14:43:43;;;;;;;5.22;0.73;;;21.70;53.00;;;;;;4473234;31;24070;-75
2021/12/07 14:46:12;;;;;;;1.90;0.47;;;21.70;54.00;;;;;;4494953;31;20128;-75
2021/12/07 14:48:40;;;;;;;1.77;0.60;;;21.70;53.10;;;;;;4488629;31;20179;-77
2021/12/07 14:51:18;;;;;;;2.70;1.00;;;21.70;53.20;;;;;;4486816;31;20144;-75
2021/12/07 14:53:46;;;;;;;6.45;1.00;;;21.70;53.20;;;;;;4492973;31;20137;-76